Time;durP1;ratioP1;P1;durP2;ratioP2;P2;SDS_P1;SDS_P2;PMS_P1;PMS_P2;Temp;Humidity;BMP_temperature;BMP_pressure;BME280_temperature;BME280_humidity;BME280_pressure;Samples;Min_cycle;Max_cycle;Signal;HPM_P1;HPM_P2
2022/04/03 00:00:56;;;;;;;7.38;2.85;;;;;;;;;;5018932;28;20426;-79
2022/04/03 00:03:21;;;;;;;7.53;3.20;;;;;;;;;;5037396;28;20464;-80
2022/04/03 00:05:47;;;;;;;4.90;3.17;;;;;;;;;;5054298;28;20040;-79
2022/04/03 00:08:13;;;;;;;4.50;3.05;;;;;;;;;;5015377;28;20116;-79
2022/04/03 00:10:40;;;;;;;6.20;2.38;;;;;;;;;;5022247;28;20041;-79
2022/04/03 00:13:06;;;;;;;5.28;2.63;;;;;;;;;;5025679;28;20049;-79
2022/04/03 00:15:32;;;;;;;6.53;3.05;;;;;;;;;;5044521;28;20385;-79
2022/04/03 00:17:59;;;;;;;3.83;2.80;;;;;;;;;;5027839;28;20045;-79
2022/04/03 00:20:25;;;;;;;5.93;2.83;;;;;;;;;;5031575;28;20642;-80
2022/04/03 00:22:52;;;;;;;3.78;2.50;;;;;;;;;;5031008;28;20053;-79
2022/04/03 00:25:18;;;;;;;4.88;2.75;;;;;;;;;;5025794;28;20044;-79
2022/04/03 00:27:45;;;;;;;5.68;2.38;;;;;;;;;;5020379;28;20468;-80
2022/04/03 00:30:12;;;;;;;5.32;2.35;;;;;;;;;;5007792;28;20051;-79
2022/04/03 00:32:38;;;;;;;3.13;2.20;;;;;;;;;;5011732;28;20464;-79
2022/04/03 00:35:05;;;;;;;4.93;2.40;;;;;;;;;;5013133;28;20037;-79
2022/04/03 00:37:31;;;;;;;4.90;2.33;;;;;;;;;;5031229;28;20052;-79
2022/04/03 00:39:57;;;;;;;5.20;2.03;;;;;;;;;;5014247;28;20051;-79
2022/04/03 00:42:23;;;;;;;3.53;2.20;;;;;;;;;;5014585;28;20710;-80
2022/04/03 00:44:49;;;;;;;3.20;2.20;;;;;;;;;;5015413;28;20056;-79
2022/04/03 00:47:15;;;;;;;3.38;2.47;;;;;;;;;;5032155;28;20111;-80
2022/04/03 00:49:40;;;;;;;2.70;2.10;;;;;;;;;;5030044;28;20037;-79
2022/04/03 00:52:06;;;;;;;3.25;1.95;;;;;;;;;;5040642;28;20044;-79
2022/04/03 00:54:32;;;;;;;3.45;2.47;;;;;;;;;;5041445;28;20062;-79
2022/04/03 00:56:58;;;;;;;4.28;2.78;;;;;;;;;;5042533;28;20102;-79
2022/04/03 00:59:24;;;;;;;6.85;3.22;;;;;;;;;;5044601;28;20036;-79
2022/04/03 01:01:50;;;;;;;6.40;3.28;;;;;;;;;;5041413;28;20051;-79
2022/04/03 01:04:15;;;;;;;4.53;3.47;;;;;;;;;;5032229;28;20065;-79
2022/04/03 01:06:42;;;;;;;6.68;3.80;;;;;;;;;;5055939;28;20075;-79
2022/04/03 01:09:09;;;;;;;5.72;3.30;;;;;;;;;;5050679;28;20103;-79
2022/04/03 01:11:35;;;;;;;6.70;3.72;;;;;;;;;;5014915;28;20037;-79
2022/04/03 01:14:01;;;;;;;5.90;3.60;;;;;;;;;;5034025;28;20041;-79
2022/04/03 01:16:27;;;;;;;6.32;3.03;;;;;;;;;;5031413;28;20059;-79
2022/04/03 01:18:52;;;;;;;5.43;3.22;;;;;;;;;;5031560;28;20127;-79
2022/04/03 01:21:18;;;;;;;5.45;2.85;;;;;;;;;;5014214;28;20041;-78
2022/04/03 01:23:45;;;;;;;7.60;3.13;;;;;;;;;;5035366;28;20120;-79
2022/04/03 01:26:10;;;;;;;3.67;2.90;;;;;;;;;;5038643;28;20049;-79
2022/04/03 01:28:36;;;;;;;5.90;2.97;;;;;;;;;;5028877;28;20163;-78
2022/04/03 01:31:02;;;;;;;5.28;3.03;;;;;;;;;;5023841;28;20115;-79
2022/04/03 01:33:28;;;;;;;6.20;3.35;;;;;;;;;;5038904;28;20044;-79
2022/04/03 01:35:54;;;;;;;4.10;2.53;;;;;;;;;;5022132;28;20096;-79
2022/04/03 01:38:20;;;;;;;4.53;2.45;;;;;;;;;;5025928;28;20040;-78
2022/04/03 01:40:45;;;;;;;5.05;2.83;;;;;;;;;;5004904;28;20037;-78
2022/04/03 01:43:11;;;;;;;3.47;2.60;;;;;;;;;;5024463;28;20044;-78
2022/04/03 01:45:38;;;;;;;3.28;2.35;;;;;;;;;;5030805;28;20040;-79
2022/04/03 01:48:05;;;;;;;5.95;3.20;;;;;;;;;;5029877;28;20029;-78
2022/04/03 01:50:31;;;;;;;7.88;3.80;;;;;;;;;;5016647;28;20048;-79
2022/04/03 01:52:56;;;;;;;4.78;3.28;;;;;;;;;;5023237;28;20038;-79
2022/04/03 01:55:24;;;;;;;8.80;3.67;;;;;;;;;;5010789;28;20040;-79
2022/04/03 01:57:50;;;;;;;5.00;3.38;;;;;;;;;;5014763;28;20033;-78
2022/04/03 02:00:16;;;;;;;6.18;3.30;;;;;;;;;;5012060;28;20045;-78
2022/04/03 02:02:42;;;;;;;6.57;2.65;;;;;;;;;;5020483;28;20045;-78
2022/04/03 02:05:09;;;;;;;4.32;2.47;;;;;;;;;;5008863;28;20576;-78
2022/04/03 02:07:35;;;;;;;4.55;2.60;;;;;;;;;;5008358;28;20435;-79
2022/04/03 02:10:02;;;;;;;7.50;3.00;;;;;;;;;;5053357;28;20043;-78
2022/04/03 02:12:28;;;;;;;5.18;2.53;;;;;;;;;;5024528;28;20033;-78
2022/04/03 02:14:54;;;;;;;3.35;2.72;;;;;;;;;;5008651;28;20038;-79
2022/04/03 02:17:21;;;;;;;5.45;3.05;;;;;;;;;;5045479;28;20041;-79
2022/04/03 02:19:48;;;;;;;6.30;3.00;;;;;;;;;;5043731;28;20128;-78
2022/04/03 02:22:14;;;;;;;5.15;2.80;;;;;;;;;;5025870;28;20051;-78
2022/04/03 02:24:40;;;;;;;4.63;2.70;;;;;;;;;;5044155;28;20040;-79
2022/04/03 02:27:06;;;;;;;4.93;3.28;;;;;;;;;;5018896;28;20048;-78
2022/04/03 02:29:32;;;;;;;6.95;3.20;;;;;;;;;;5029911;28;20040;-78
2022/04/03 02:32:00;;;;;;;3.22;2.92;;;;;;;;;;5033345;28;20068;-78
2022/04/03 02:34:27;;;;;;;5.65;3.47;;;;;;;;;;5027135;28;20527;-78
2022/04/03 02:36:52;;;;;;;6.25;3.00;;;;;;;;;;5022178;28;20037;-78
2022/04/03 02:39:18;;;;;;;5.55;3.55;;;;;;;;;;5009690;28;20382;-78
2022/04/03 02:41:45;;;;;;;8.18;3.30;;;;;;;;;;5012496;28;20026;-78
2022/04/03 02:44:11;;;;;;;4.60;2.90;;;;;;;;;;5029438;28;20052;-78
2022/04/03 02:46:40;;;;;;;5.40;2.80;;;;;;;;;;5028468;28;20032;-78
2022/04/03 02:49:08;;;;;;;6.75;2.75;;;;;;;;;;5017050;28;20116;-78
2022/04/03 02:51:34;;;;;;;4.20;2.63;;;;;;;;;;5032409;28;20547;-78
2022/04/03 02:54:00;;;;;;;4.25;2.88;;;;;;;;;;5048548;28;20445;-78
2022/04/03 02:56:25;;;;;;;6.15;3.53;;;;;;;;;;5043569;28;20448;-78
2022/04/03 02:58:57;;;;;;;4.57;2.88;;;;;;;;;;5041490;28;20072;-78
2022/04/03 03:01:23;;;;;;;5.38;3.47;;;;;;;;;;5044480;28;20036;-78
2022/04/03 03:03:50;;;;;;;5.43;3.25;;;;;;;;;;5047354;28;20044;-77
2022/04/03 03:06:16;;;;;;;6.32;3.33;;;;;;;;;;5040216;28;20049;-78
2022/04/03 03:08:42;;;;;;;6.55;2.97;;;;;;;;;;5029274;28;20059;-77
2022/04/03 03:11:08;;;;;;;7.95;3.25;;;;;;;;;;5026566;28;20037;-78
2022/04/03 03:13:34;;;;;;;7.38;3.03;;;;;;;;;;5029295;28;20445;-78
2022/04/03 03:16:00;;;;;;;5.13;3.25;;;;;;;;;;5029373;28;20060;-77
2022/04/03 03:18:26;;;;;;;6.03;3.60;;;;;;;;;;5032031;28;20420;-77
2022/04/03 03:20:51;;;;;;;5.50;3.70;;;;;;;;;;5044586;28;20040;-77
2022/04/03 03:23:17;;;;;;;5.82;3.33;;;;;;;;;;5021314;28;20044;-77
2022/04/03 03:25:45;;;;;;;4.68;3.13;;;;;;;;;;5061446;28;20324;-77
2022/04/03 03:28:11;;;;;;;7.30;3.88;;;;;;;;;;5026065;28;20032;-78
2022/04/03 03:30:37;;;;;;;4.95;3.15;;;;;;;;;;5023806;28;20041;-78
2022/04/03 03:33:03;;;;;;;5.90;3.33;;;;;;;;;;5010237;28;20115;-77
2022/04/03 03:35:30;;;;;;;4.45;2.97;;;;;;;;;;5011500;28;20045;-77
2022/04/03 03:37:56;;;;;;;7.18;3.42;;;;;;;;;;5015731;28;20041;-77
2022/04/03 03:40:23;;;;;;;6.60;2.78;;;;;;;;;;5035945;28;20458;-77
2022/04/03 03:42:49;;;;;;;6.25;3.47;;;;;;;;;;5011109;28;20128;-77
2022/04/03 03:45:15;;;;;;;4.93;3.53;;;;;;;;;;5026809;28;20044;-77
2022/04/03 03:47:45;;;;;;;7.22;3.50;;;;;;;;;;5022557;28;20029;-77
2022/04/03 03:50:11;;;;;;;6.45;3.15;;;;;;;;;;5035350;28;21015;-77
2022/04/03 03:52:37;;;;;;;6.15;3.10;;;;;;;;;;5023509;28;20422;-77
2022/04/03 03:55:03;;;;;;;5.88;3.50;;;;;;;;;;5041523;28;20103;-78
2022/04/03 03:57:29;;;;;;;7.97;3.13;;;;;;;;;;5039852;28;20035;-77
2022/04/03 03:59:55;;;;;;;6.32;3.40;;;;;;;;;;5051958;28;20044;-77
2022/04/03 04:02:21;;;;;;;5.38;3.22;;;;;;;;;;5039992;28;20468;-77
2022/04/03 04:04:47;;;;;;;4.63;3.10;;;;;;;;;;5024396;28;20090;-77
2022/04/03 04:07:13;;;;;;;5.82;3.15;;;;;;;;;;5021159;28;20056;-77
2022/04/03 04:09:39;;;;;;;6.93;3.42;;;;;;;;;;5046633;28;20047;-78
2022/04/03 04:12:06;;;;;;;6.90;3.15;;;;;;;;;;5045197;28;20455;-77
2022/04/03 04:14:32;;;;;;;6.32;3.25;;;;;;;;;;5064082;28;20033;-77
2022/04/03 04:16:58;;;;;;;6.85;3.42;;;;;;;;;;5033646;28;20413;-77
2022/04/03 04:19:24;;;;;;;6.57;3.05;;;;;;;;;;5045651;28;20040;-77
2022/04/03 04:21:51;;;;;;;6.95;3.80;;;;;;;;;;5062815;28;20094;-77
2022/04/03 04:24:18;;;;;;;5.88;3.45;;;;;;;;;;5017446;28;20382;-78
2022/04/03 04:26:44;;;;;;;6.65;3.35;;;;;;;;;;5005641;28;20043;-77
2022/04/03 04:29:11;;;;;;;4.70;3.10;;;;;;;;;;5020847;28;20049;-77
2022/04/03 04:31:37;;;;;;;7.35;3.58;;;;;;;;;;5038682;28;20059;-77
2022/04/03 04:34:03;;;;;;;5.43;2.90;;;;;;;;;;5014208;28;20039;-77
2022/04/03 04:36:32;;;;;;;5.28;3.13;;;;;;;;;;5041718;28;20512;-77
2022/04/03 04:38:58;;;;;;;5.07;2.95;;;;;;;;;;5019494;28;20044;-77
2022/04/03 04:41:24;;;;;;;5.05;2.88;;;;;;;;;;5042612;28;20482;-77
2022/04/03 04:43:49;;;;;;;4.28;3.08;;;;;;;;;;5038944;28;20385;-77
2022/04/03 04:46:16;;;;;;;6.15;2.95;;;;;;;;;;5002032;28;20041;-77
2022/04/03 04:48:42;;;;;;;4.82;3.35;;;;;;;;;;5014034;28;20033;-77
2022/04/03 04:51:09;;;;;;;5.50;3.30;;;;;;;;;;5027364;28;20403;-77
2022/04/03 04:53:35;;;;;;;4.97;3.60;;;;;;;;;;5040218;28;20044;-77
2022/04/03 04:56:01;;;;;;;7.05;3.67;;;;;;;;;;5012802;28;20409;-77
2022/04/03 04:58:28;;;;;;;6.10;3.30;;;;;;;;;;5020477;28;20045;-77
2022/04/03 05:00:57;;;;;;;6.45;3.63;;;;;;;;;;5027055;28;20136;-77
2022/04/03 05:03:27;;;;;;;5.63;3.00;;;;;;;;;;5041856;28;20041;-77
2022/04/03 05:05:53;;;;;;;7.63;3.55;;;;;;;;;;5035929;28;20037;-77
2022/04/03 05:08:19;;;;;;;4.55;3.03;;;;;;;;;;5055566;28;20124;-77
2022/04/03 05:10:45;;;;;;;8.10;3.55;;;;;;;;;;5022577;28;20041;-77
2022/04/03 05:13:11;;;;;;;5.20;3.22;;;;;;;;;;5015359;28;20166;-77
2022/04/03 05:15:37;;;;;;;8.70;3.47;;;;;;;;;;5052910;28;20051;-77
2022/04/03 05:18:03;;;;;;;6.70;3.13;;;;;;;;;;5035707;28;20123;-77
2022/04/03 05:20:29;;;;;;;5.38;3.50;;;;;;;;;;5032787;28;20028;-77
2022/04/03 05:22:54;;;;;;;7.55;3.95;;;;;;;;;;5031703;28;20386;-77
2022/04/03 05:25:20;;;;;;;6.60;4.20;;;;;;;;;;5034621;28;20036;-77
2022/04/03 05:27:46;;;;;;;5.70;3.60;;;;;;;;;;5015739;28;20045;-77
2022/04/03 05:30:13;;;;;;;6.63;4.13;;;;;;;;;;5010588;28;20569;-77
2022/04/03 05:32:39;;;;;;;14.27;9.43;;;;;;;;;;5019128;28;20036;-77
2022/04/03 05:35:06;;;;;;;6.97;4.85;;;;;;;;;;5004709;28;20567;-77
2022/04/03 05:37:32;;;;;;;5.20;3.72;;;;;;;;;;5021617;28;20044;-77
2022/04/03 05:39:57;;;;;;;6.30;3.33;;;;;;;;;;5037357;28;20047;-77
2022/04/03 05:42:23;;;;;;;3.58;3.00;;;;;;;;;;5040225;28;20067;-77
2022/04/03 05:44:49;;;;;;;3.28;2.30;;;;;;;;;;5038135;28;20144;-77
2022/04/03 05:47:17;;;;;;;6.93;2.70;;;;;;;;;;5037756;28;20041;-77
2022/04/03 05:49:43;;;;;;;5.00;2.70;;;;;;;;;;5019603;28;20045;-77
2022/04/03 05:52:08;;;;;;;7.05;2.85;;;;;;;;;;5024356;28;20132;-77
2022/04/03 05:54:34;;;;;;;6.53;3.83;;;;;;;;;;5024971;28;20037;-77
2022/04/03 05:57:00;;;;;;;19.60;9.50;;;;;;;;;;5036793;28;20041;-78
2022/04/03 05:59:26;;;;;;;14.35;5.45;;;;;;;;;;5033347;28;20107;-77
2022/04/03 06:01:52;;;;;;;5.53;2.80;;;;;;;;;;5033994;28;20041;-77
2022/04/03 06:04:17;;;;;;;4.28;2.58;;;;;;;;;;5022711;28;20347;-78
2022/04/03 06:06:43;;;;;;;3.72;2.75;;;;;;;;;;5032346;28;20060;-77
2022/04/03 06:09:09;;;;;;;5.85;2.70;;;;;;;;;;5014940;28;20046;-78
2022/04/03 06:11:35;;;;;;;3.35;2.90;;;;;;;;;;5033154;28;20299;-78
2022/04/03 06:14:01;;;;;;;5.78;3.35;;;;;;;;;;5030419;28;20233;-77
2022/04/03 06:16:27;;;;;;;7.28;4.45;;;;;;;;;;5015664;28;20041;-78
2022/04/03 06:18:53;;;;;;;7.80;4.72;;;;;;;;;;5012154;28;20106;-77
2022/04/03 06:21:19;;;;;;;5.72;3.92;;;;;;;;;;5031817;28;20033;-77
2022/04/03 06:23:45;;;;;;;5.10;3.97;;;;;;;;;;5014038;28;20397;-77
2022/04/03 06:26:11;;;;;;;6.85;4.97;;;;;;;;;;5034949;28;20055;-77
2022/04/03 06:28:36;;;;;;;5.65;3.53;;;;;;;;;;5023097;28;20042;-77
2022/04/03 06:31:02;;;;;;;8.73;3.83;;;;;;;;;;5023730;28;20033;-77
2022/04/03 06:33:28;;;;;;;5.38;3.33;;;;;;;;;;5024913;28;20167;-78
2022/04/03 06:35:54;;;;;;;5.75;3.50;;;;;;;;;;5041108;28;20036;-77
2022/04/03 06:38:20;;;;;;;7.18;3.55;;;;;;;;;;5017003;28;20430;-77
2022/04/03 06:40:51;;;;;;;3.55;2.80;;;;;;;;;;5041187;28;20126;-77
2022/04/03 06:43:20;;;;;;;6.78;2.95;;;;;;;;;;5035811;28;20128;-77
2022/04/03 06:45:47;;;;;;;7.95;3.35;;;;;;;;;;5017421;28;20056;-77
2022/04/03 06:48:13;;;;;;;6.05;3.33;;;;;;;;;;5011711;28;20049;-77
2022/04/03 06:50:38;;;;;;;4.20;3.00;;;;;;;;;;5014390;28;20033;-78
2022/04/03 06:53:04;;;;;;;5.18;3.03;;;;;;;;;;5028320;28;20033;-77
2022/04/03 06:55:30;;;;;;;3.42;2.90;;;;;;;;;;5027192;28;20607;-78
2022/04/03 06:57:56;;;;;;;3.55;3.00;;;;;;;;;;5004179;28;20037;-83
2022/04/03 07:00:22;;;;;;;6.43;4.25;;;;;;;;;;5029746;28;20048;-84
2022/04/03 07:02:49;;;;;;;5.00;3.42;;;;;;;;;;5028169;28;20111;-84
2022/04/03 07:05:14;;;;;;;7.05;3.90;;;;;;;;;;5015885;28;20112;-84
2022/04/03 07:07:40;;;;;;;6.47;4.30;;;;;;;;;;5013910;28;20064;-85
2022/04/03 07:10:07;;;;;;;4.93;4.25;;;;;;;;;;5067019;28;20093;-85
2022/04/03 07:12:32;;;;;;;5.07;3.83;;;;;;;;;;5033658;28;20144;-85
2022/04/03 07:14:58;;;;;;;7.13;4.57;;;;;;;;;;5046643;28;20064;-85
2022/04/03 07:17:24;;;;;;;8.57;5.35;;;;;;;;;;5025000;28;20037;-85
2022/04/03 07:19:50;;;;;;;7.93;4.30;;;;;;;;;;5034440;28;20135;-84
2022/04/03 07:22:15;;;;;;;4.50;3.38;;;;;;;;;;5027176;28;20041;-84
2022/04/03 07:24:41;;;;;;;8.27;3.63;;;;;;;;;;5053938;28;20071;-85
2022/04/03 07:27:07;;;;;;;7.93;2.53;;;;;;;;;;5032002;28;20071;-85
2022/04/03 07:29:33;;;;;;;5.93;2.47;;;;;;;;;;5012999;28;20126;-85
2022/04/03 07:32:00;;;;;;;5.53;3.13;;;;;;;;;;5029450;28;20363;-84
2022/04/03 07:34:25;;;;;;;2.58;2.38;;;;;;;;;;5011402;28;20467;-84
2022/04/03 07:36:51;;;;;;;6.63;3.22;;;;;;;;;;5022378;28;20041;-84
2022/04/03 07:39:17;;;;;;;4.28;2.80;;;;;;;;;;5035746;28;20040;-85
2022/04/03 07:41:42;;;;;;;4.40;2.72;;;;;;;;;;5033248;28;20062;-85
2022/04/03 07:44:09;;;;;;;5.18;2.90;;;;;;;;;;5053580;28;20044;-85
2022/04/03 07:46:36;;;;;;;6.13;3.17;;;;;;;;;;5050686;28;20040;-85
2022/04/03 07:49:03;;;;;;;4.30;2.58;;;;;;;;;;5019640;28;20063;-86
2022/04/03 07:51:28;;;;;;;3.80;2.80;;;;;;;;;;5023681;28;20061;-84
2022/04/03 07:53:55;;;;;;;3.17;2.80;;;;;;;;;;5043223;28;20090;-84
2022/04/03 07:56:21;;;;;;;4.60;3.00;;;;;;;;;;5021831;28;20037;-85
2022/04/03 07:58:46;;;;;;;4.68;2.22;;;;;;;;;;5032384;28;20039;-84
2022/04/03 08:01:12;;;;;;;5.43;2.20;;;;;;;;;;5025565;28;20064;-84
2022/04/03 08:03:38;;;;;;;3.35;1.90;;;;;;;;;;5021022;28;20063;-85
2022/04/03 08:06:04;;;;;;;2.88;2.63;;;;;;;;;;5035993;28;20048;-85
2022/04/03 08:08:30;;;;;;;3.45;2.58;;;;;;;;;;5029164;28;20042;-85
2022/04/03 08:10:56;;;;;;;4.85;3.05;;;;;;;;;;5022697;28;20048;-85
2022/04/03 08:13:22;;;;;;;4.05;3.45;;;;;;;;;;5025391;28;20060;-84
2022/04/03 08:15:48;;;;;;;5.13;2.15;;;;;;;;;;5030618;28;20033;-85
2022/04/03 08:18:14;;;;;;;3.17;2.60;;;;;;;;;;5044263;28;20308;-84
2022/04/03 08:20:40;;;;;;;6.10;2.70;;;;;;;;;;5029556;28;20043;-85
2022/04/03 08:23:06;;;;;;;2.63;1.63;;;;;;;;;;5044518;28;20045;-84
2022/04/03 08:25:33;;;;;;;5.90;2.50;;;;;;;;;;5035851;28;20028;-84
2022/04/03 08:28:02;;;;;;;3.33;1.88;;;;;;;;;;5040955;28;20039;-85
2022/04/03 08:30:29;;;;;;;3.90;1.67;;;;;;;;;;5029270;28;20033;-85
2022/04/03 08:32:54;;;;;;;3.03;1.90;;;;;;;;;;5031567;28;20501;-84
2022/04/03 08:35:22;;;;;;;3.78;1.80;;;;;;;;;;5007432;28;20036;-85
2022/04/03 08:37:50;;;;;;;4.05;1.80;;;;;;;;;;5006345;28;20032;-84
2022/04/03 08:40:21;;;;;;;2.33;1.77;;;;;;;;;;5047872;28;20045;-85
2022/04/03 08:42:48;;;;;;;3.13;2.03;;;;;;;;;;5034409;28;20041;-82
2022/04/03 08:45:13;;;;;;;3.38;1.80;;;;;;;;;;5048445;28;20044;-84
2022/04/03 08:47:47;;;;;;;4.30;1.40;;;;;;;;;;5004401;28;20087;-85
2022/04/03 08:50:14;;;;;;;5.82;1.77;;;;;;;;;;5033974;28;20041;-84
2022/04/03 08:52:44;;;;;;;7.25;1.52;;;;;;;;;;5034451;28;20068;-84
2022/04/03 08:55:10;;;;;;;14.57;1.40;;;;;;;;;;5024973;28;20562;-84
2022/04/03 08:57:35;;;;;;;10.98;1.85;;;;;;;;;;5048381;28;20517;-85
2022/04/03 09:00:01;;;;;;;2.42;1.40;;;;;;;;;;5049326;28;20070;-84
2022/04/03 09:02:27;;;;;;;3.47;1.48;;;;;;;;;;5034175;28;20453;-84
2022/04/03 09:04:56;;;;;;;2.50;1.27;;;;;;;;;;5039060;28;20033;-84
2022/04/03 09:07:22;;;;;;;2.53;1.40;;;;;;;;;;5038270;28;20033;-84
2022/04/03 09:10:00;;;;;;;1.85;1.10;;;;;;;;;;5042181;28;20059;-84
2022/04/03 09:12:29;;;;;;;2.63;1.15;;;;;;;;;;5033638;28;20028;-84
2022/04/03 09:14:56;;;;;;;3.05;1.20;;;;;;;;;;5047380;28;20090;-85
2022/04/03 09:17:33;;;;;;;1.10;1.00;;;;;;;;;;5035183;28;20123;-84
2022/04/03 09:20:01;;;;;;;2.33;1.30;;;;;;;;;;5032072;28;20040;-84
2022/04/03 09:22:30;;;;;;;1.38;1.20;;;;;;;;;;5032086;28;20102;-84
2022/04/03 09:24:55;;;;;;;1.80;1.25;;;;;;;;;;5038583;28;20056;-85
2022/04/03 09:27:21;;;;;;;1.85;1.05;;;;;;;;;;5038668;28;20102;-85
2022/04/03 09:29:47;;;;;;;1.85;1.10;;;;;;;;;;5046157;28;20033;-85
2022/04/03 09:32:15;;;;;;;2.72;1.75;;;;;;;;;;5051193;28;20106;-85
2022/04/03 09:34:41;;;;;;;1.83;1.30;;;;;;;;;;5027381;28;20067;-84
2022/04/03 09:37:07;;;;;;;1.60;1.50;;;;;;;;;;5044324;28;20041;-85
2022/04/03 09:39:33;;;;;;;4.72;1.48;;;;;;;;;;5028893;28;20041;-84
2022/04/03 09:42:03;;;;;;;2.70;1.40;;;;;;;;;;5043473;28;20062;-85
2022/04/03 09:44:35;;;;;;;1.90;1.70;;;;;;;;;;5031381;28;20039;-84
2022/04/03 09:47:26;;;;;;;3.50;1.17;;;;;;;;;;5047332;28;20108;-85
2022/04/03 09:50:00;;;;;;;1.63;1.17;;;;;;;;;;5036276;28;20042;-85
2022/04/03 09:52:41;;;;;;;2.35;1.17;;;;;;;;;;5018016;28;20110;-85
2022/04/03 09:55:08;;;;;;;3.67;1.90;;;;;;;;;;5043575;28;20048;-84
2022/04/03 09:57:33;;;;;;;3.20;1.52;;;;;;;;;;5027670;28;20040;-84
2022/04/03 10:00:00;;;;;;;3.60;1.23;;;;;;;;;;5042607;28;20043;-84
2022/04/03 10:02:28;;;;;;;2.78;1.50;;;;;;;;;;5051482;28;20046;-84
2022/04/03 10:04:55;;;;;;;1.55;1.13;;;;;;;;;;5032004;28;20037;-84
2022/04/03 10:07:22;;;;;;;1.27;1.17;;;;;;;;;;5033496;28;20081;-84
2022/04/03 10:09:52;;;;;;;1.80;1.15;;;;;;;;;;5037178;28;20033;-84
2022/04/03 10:12:23;;;;;;;1.83;1.65;;;;;;;;;;5035148;28;20032;-84
2022/04/03 10:14:50;;;;;;;2.33;1.45;;;;;;;;;;5027364;28;20141;-85
2022/04/03 10:17:17;;;;;;;3.75;1.48;;;;;;;;;;5031913;28;20109;-85
2022/04/03 10:19:43;;;;;;;3.00;1.55;;;;;;;;;;5028695;28;20497;-86
2022/04/03 10:22:13;;;;;;;2.17;1.58;;;;;;;;;;5048004;28;20037;-85
2022/04/03 10:24:42;;;;;;;2.20;1.33;;;;;;;;;;5044976;28;20040;-86
2022/04/03 10:27:14;;;;;;;3.95;1.38;;;;;;;;;;5032213;28;20625;-85
2022/04/03 10:29:41;;;;;;;4.53;1.20;;;;;;;;;;5027458;28;20497;-85
2022/04/03 10:32:21;;;;;;;1.90;1.55;;;;;;;;;;5045724;28;20029;-85
2022/04/03 10:34:50;;;;;;;2.22;1.25;;;;;;;;;;5034644;28;20047;-85
2022/04/03 10:37:23;;;;;;;4.60;1.52;;;;;;;;;;5030813;28;20043;-85
2022/04/03 10:39:53;;;;;;;2.22;1.50;;;;;;;;;;5009571;28;20038;-86
2022/04/03 10:42:25;;;;;;;1.65;1.27;;;;;;;;;;5015704;28;20037;-85
2022/04/03 10:45:12;;;;;;;2.42;1.60;;;;;;;;;;5014760;28;20041;-85
2022/04/03 10:47:43;;;;;;;4.47;1.67;;;;;;;;;;5069922;28;20044;-85
2022/04/03 10:50:09;;;;;;;2.90;1.50;;;;;;;;;;5047453;28;20254;-85
2022/04/03 10:52:38;;;;;;;3.13;1.40;;;;;;;;;;5015547;28;20044;-85
2022/04/03 10:55:25;;;;;;;1.60;1.48;;;;;;;;;;5049229;28;20051;-86
2022/04/03 10:57:55;;;;;;;5.15;1.50;;;;;;;;;;5054491;28;20040;-85
2022/04/03 11:00:24;;;;;;;1.52;1.35;;;;;;;;;;5017353;28;20509;-85
2022/04/03 11:02:52;;;;;;;2.70;1.58;;;;;;;;;;5049389;28;20067;-86
2022/04/03 11:05:24;;;;;;;1.55;1.45;;;;;;;;;;5022369;28;20033;-85
2022/04/03 11:07:51;;;;;;;1.95;1.75;;;;;;;;;;5037192;28;20053;-85
2022/04/03 11:10:52;;;;;;;2.90;2.10;;;;;;;;;;5021894;28;20247;-86
2022/04/03 11:13:19;;;;;;;3.80;2.08;;;;;;;;;;5022704;28;20037;-85
2022/04/03 11:15:51;;;;;;;3.40;1.42;;;;;;;;;;5024159;28;20132;-85
2022/04/03 11:18:36;;;;;;;1.75;1.50;;;;;;;;;;5076389;28;20086;-85
2022/04/03 11:21:16;;;;;;;3.55;1.70;;;;;;;;;;5018758;28;20071;-85
2022/04/03 11:23:47;;;;;;;2.40;1.60;;;;;;;;;;5054173;28;20570;-85
2022/04/03 11:26:13;;;;;;;2.25;1.63;;;;;;;;;;5053986;28;20041;-85
2022/04/03 11:28:39;;;;;;;2.47;1.40;;;;;;;;;;5032539;28;20103;-85
2022/04/03 11:31:06;;;;;;;1.73;1.13;;;;;;;;;;5034918;28;20032;-85
2022/04/03 11:33:32;;;;;;;4.65;1.50;;;;;;;;;;5031718;28;20040;-84
2022/04/03 11:36:03;;;;;;;2.25;1.15;;;;;;;;;;5032584;28;20337;-85
2022/04/03 11:38:39;;;;;;;2.65;1.70;;;;;;;;;;5033794;28;20165;-85
2022/04/03 11:41:08;;;;;;;2.47;1.58;;;;;;;;;;5044905;28;20037;-85
2022/04/03 11:43:33;;;;;;;6.80;1.58;;;;;;;;;;5055232;28;20045;-86
2022/04/03 11:46:01;;;;;;;3.35;2.00;;;;;;;;;;5035189;28;20066;-85
2022/04/03 11:48:45;;;;;;;3.55;2.22;;;;;;;;;;5036017;28;20457;-85
2022/04/03 11:51:17;;;;;;;3.80;1.77;;;;;;;;;;5037112;28;20108;-86
2022/04/03 11:53:44;;;;;;;2.15;1.67;;;;;;;;;;5031425;28;20528;-85
2022/04/03 11:56:19;;;;;;;3.47;1.70;;;;;;;;;;5031755;28;20051;-85
2022/04/03 11:58:50;;;;;;;2.20;1.80;;;;;;;;;;5050716;28;20052;-85
2022/04/03 12:01:28;;;;;;;1.88;1.70;;;;;;;;;;5035111;28;20279;-85
2022/04/03 12:04:06;;;;;;;1.75;1.48;;;;;;;;;;5036127;28;20056;-84
2022/04/03 12:06:32;;;;;;;2.63;1.73;;;;;;;;;;5030693;28;20041;-84
2022/04/03 12:08:58;;;;;;;2.63;1.60;;;;;;;;;;5031184;28;20094;-84
2022/04/03 12:11:29;;;;;;;2.33;2.08;;;;;;;;;;5056515;28;20029;-84
2022/04/03 12:14:05;;;;;;;2.97;1.73;;;;;;;;;;5037386;28;20062;-84
2022/04/03 12:16:31;;;;;;;3.08;1.98;;;;;;;;;;5030233;28;20104;-84
2022/04/03 12:19:02;;;;;;;3.17;2.33;;;;;;;;;;5038758;28;20049;-84
2022/04/03 12:21:43;;;;;;;2.67;2.13;;;;;;;;;;5036724;28;20044;-83
2022/04/03 12:24:17;;;;;;;4.03;1.70;;;;;;;;;;5035185;28;20039;-83
2022/04/03 12:26:49;;;;;;;3.55;2.10;;;;;;;;;;5036749;28;20055;-83
2022/04/03 12:29:15;;;;;;;4.88;2.90;;;;;;;;;;5055266;28;20045;-83
2022/04/03 12:31:41;;;;;;;5.10;3.03;;;;;;;;;;5042032;28;20044;-84
2022/04/03 12:34:11;;;;;;;2.60;1.85;;;;;;;;;;5037573;28;20059;-84
2022/04/03 12:36:38;;;;;;;3.25;2.35;;;;;;;;;;5056331;28;20036;-83
2022/04/03 12:39:04;;;;;;;3.10;1.75;;;;;;;;;;5040554;28;20331;-83
2022/04/03 12:41:30;;;;;;;3.38;1.77;;;;;;;;;;5025735;28;20489;-83
2022/04/03 12:43:59;;;;;;;2.22;1.80;;;;;;;;;;5034940;28;20029;-83
2022/04/03 12:46:36;;;;;;;2.25;1.60;;;;;;;;;;5035565;28;20074;-84
2022/04/03 12:49:02;;;;;;;2.55;1.55;;;;;;;;;;5054588;28;20489;-84
2022/04/03 12:51:28;;;;;;;3.08;1.70;;;;;;;;;;5036315;28;20033;-83
2022/04/03 12:53:57;;;;;;;2.05;1.85;;;;;;;;;;5053036;28;20110;-83
2022/04/03 12:58:24;;;;;;;2.63;2.13;;;;;;;;;;5050914;28;20040;-82
2022/04/03 12:59:22;;;;;;;1.67;1.55;;;;;;;;;;5058353;28;20051;-82
2022/04/03 13:01:58;;;;;;;2.30;2.10;;;;;;;;;;5049083;28;20033;-81
2022/04/03 13:04:44;;;;;;;2.80;1.83;;;;;;;;;;5029767;28;20047;-81
2022/04/03 13:07:10;;;;;;;2.20;1.92;;;;;;;;;;5034522;28;20040;-81
2022/04/03 13:09:45;;;;;;;1.88;1.60;;;;;;;;;;5052456;28;20098;-81
2022/04/03 13:12:11;;;;;;;3.05;2.28;;;;;;;;;;5034705;28;20104;-81
2022/04/03 13:14:37;;;;;;;2.97;1.75;;;;;;;;;;5030237;28;20059;-80
2022/04/03 13:17:08;;;;;;;2.58;1.80;;;;;;;;;;5065938;28;20062;-79
2022/04/03 13:19:35;;;;;;;2.33;1.55;;;;;;;;;;5035305;28;20036;-80
2022/04/03 13:22:02;;;;;;;1.80;1.63;;;;;;;;;;5011447;28;20448;-80
2022/04/03 13:24:29;;;;;;;2.40;1.60;;;;;;;;;;5048431;28;20044;-80
2022/04/03 13:26:59;;;;;;;6.15;2.33;;;;;;;;;;5020944;28;20176;-79
2022/04/03 13:29:26;;;;;;;2.05;1.50;;;;;;;;;;5030586;28;20040;-79
2022/04/03 13:31:54;;;;;;;7.63;1.60;;;;;;;;;;5048864;28;20035;-79
2022/04/03 13:34:22;;;;;;;4.88;1.70;;;;;;;;;;5027860;28;20059;-79
2022/04/03 13:36:48;;;;;;;1.73;1.58;;;;;;;;;;5036824;28;20528;-79
2022/04/03 13:39:14;;;;;;;2.50;1.70;;;;;;;;;;5026833;28;20055;-79
2022/04/03 13:41:39;;;;;;;3.42;1.90;;;;;;;;;;5031935;28;20748;-79
2022/04/03 13:44:07;;;;;;;1.83;1.48;;;;;;;;;;5037853;28;20319;-79
2022/04/03 13:46:35;;;;;;;1.92;1.58;;;;;;;;;;5015612;28;20072;-79
2022/04/03 13:49:01;;;;;;;2.92;1.80;;;;;;;;;;5031186;28;20037;-81
2022/04/03 13:51:26;;;;;;;3.63;2.05;;;;;;;;;;5040496;28;20088;-81
2022/04/03 13:53:52;;;;;;;3.08;1.90;;;;;;;;;;5008910;28;20072;-82
2022/04/03 13:56:19;;;;;;;2.78;1.83;;;;;;;;;;5041290;28;20327;-82
2022/04/03 13:58:46;;;;;;;2.78;1.70;;;;;;;;;;5012981;28;20391;-82
2022/04/03 14:01:14;;;;;;;5.38;2.13;;;;;;;;;;5044073;28;20071;-82
2022/04/03 14:03:46;;;;;;;2.80;1.40;;;;;;;;;;4995415;28;20043;-82
2022/04/03 14:06:12;;;;;;;4.03;2.33;;;;;;;;;;4995898;28;20038;-82
2022/04/03 14:08:38;;;;;;;21.80;13.05;;;;;;;;;;5014809;28;20041;-82
2022/04/03 14:11:07;;;;;;;14.80;11.27;;;;;;;;;;5030810;28;20025;-82
2022/04/03 14:13:33;;;;;;;9.90;5.60;;;;;;;;;;5049046;28;20370;-82
2022/04/03 14:16:08;;;;;;;2.88;1.50;;;;;;;;;;5038870;28;20062;-82
2022/04/03 14:18:34;;;;;;;2.38;1.90;;;;;;;;;;5034126;28;20033;-80
2022/04/03 14:21:00;;;;;;;2.20;1.40;;;;;;;;;;5052872;28;20083;-83
2022/04/03 14:23:32;;;;;;;2.40;1.45;;;;;;;;;;5023642;28;20037;-83
2022/04/03 14:26:04;;;;;;;2.60;1.15;;;;;;;;;;5041247;28;20098;-83
2022/04/03 14:28:31;;;;;;;2.83;1.58;;;;;;;;;;5039499;28;20036;-83
2022/04/03 14:30:57;;;;;;;4.78;1.85;;;;;;;;;;5051435;28;20060;-83
2022/04/03 14:33:24;;;;;;;2.28;1.60;;;;;;;;;;5053094;28;20036;-83
2022/04/03 14:35:50;;;;;;;2.40;1.50;;;;;;;;;;5060089;28;20037;-83
2022/04/03 14:38:19;;;;;;;2.25;1.60;;;;;;;;;;5038673;28;20073;-84
2022/04/03 14:40:46;;;;;;;2.30;1.30;;;;;;;;;;5038311;28;20064;-84
2022/04/03 14:43:12;;;;;;;2.85;1.58;;;;;;;;;;5034065;28;20036;-84
2022/04/03 14:45:37;;;;;;;2.35;1.58;;;;;;;;;;5023245;28;20040;-80